Airfield :
LOGIN :

Register | Disclaimer

   EN    FR    IT 

 










Legend :    VFR   Marginal VFR   IFR   Intensive IFR   Very Intensive IFR
Visi :
Ceiling :
>= 8 km
>= 3000ft
5 to 8 km
1000 to 3000 ft
1500m to 5 km
500 to 1000 ft
800 to 1500m
200 to 500 ft
< 800m
< 200 ft
Symbols :   Thunderstorms  Fog  Heavy snow  Heavy precipitations  Wind > 20 kt
SIGMETs :     Misc.  Thunderstorms  Icing  Turbulence  Mountain Waves  Volcanic Ashes







- Airport Elevation : 147 ft
- IATA code : DUS


EDDL - Düsseldorf Int.

CURRENT METAR :
  • 231420Z 35012KT 8000 -RA FEW005 BKN010 BKN016 11/09 Q1010 TEMPO BKN008

EXPIRED METARs :
  • 231350Z 36010KT 9999 -RA FEW005 SCT008 BKN012 11/10 Q1009 TEMPO BKN008
  • 231320Z 02012KT 9999 -RA FEW005 BKN008 BKN060 11/10 Q1008 RERA TEMPO BKN010
  • 231250Z 36016KT 6000 RA FEW004 BKN007 BKN024 11/10 Q1008 TEMPO 4500
  • 231220Z 36011KT 7000 -RA FEW004 BKN007 12/11 Q1008 RERA TEMPO RA BKN004
  • 231150Z 03012KT 8000 -RA FEW004 BKN007 BKN036 12/11 Q1007 RERA TEMPO RA

TAF TAF EDDL
Valid from the 23 at 12:00 until the 24 at 18:00 UTC


231100Z 2312/2418 01009KT 7000 SCT004 OVC008
TEMPO 2312/2317 4000 RA
PROB30
TEMPO 2312/2315 35015G25KT 2000 +RA OVC004
BECMG 2317/2320 29008KT BKN020
PROB30
TEMPO 2412/2415 30015G25KT
No reported NOTAMs for that airfield.
3 SIGMETs reported for the Langen FIR (EDGG) :
 
Embedded thunderstorms
EDGG SIGMET 3 VALID 231325/231525 EDZF
EDGG LANGEN FIR EMBD TS OBS APRX 50NM WID LINE BTN N4909 E00615 - N4933 E00654 - N5002 E00735 - N5036 E00807 TOP FL350 MOV E INTSF=
Severe turbulence
EDGG SIGMET 2 VALID 231300/231500 EDZF
EDGG LANGEN FIR SEV TURB FCST WI N5051 E00959 - N4905 E00909 - N4900 E00803 - N4907 E00637 - N5006 E00600 - N5032 E00656 - N5045 E00803 - N5051 E00959 SFC/FL060 MOV E INTSF=
Severe turbulence
EDGG SIGMET 1 VALID 231300/231500 EDZF
EDGG LANGEN FIR SEV TURB FCST WI N4905 E00916 - N4748 E00842 - N4728 E00728 - N4805 E00729 - N4835 E00744 - N4850 E00756 - N4858 E00811 - N4905 E00916 SFC/FL100 MOV E INTSF=



MET'MAP, your aeronautical weather chart ! - Copyright ORBIFLY December 2007 - Disclaimer

ORBIFLY MET'MAP TEAM :

Programming & Development : Alexandra Zaïnal
Concept & Development : Baudouin d'Aumeries
Co-Development & Prog : Marc-Olivier Méhu
Technical & hardware support : Manuel Goepfert

Contact : metmap@orbifly.com




SOURCES & CREDITS :

   NOAA